METAR Data
IDs: Format: Raw Decoded Include TAF

Data at: 0605 UTC 24 Sep 2018

KANQ 240555Z AUTO 10007KT 10SM 13/11 A3018 RMK AO2 TSNO
KANQ 240535Z AUTO 09006KT 10SM 13/11 A3018 RMK AO2 TSNO
KANQ 240515Z AUTO 10008KT 10SM 13/11 A3018 RMK AO2 TSNO
KANQ 240455Z AUTO 10007KT 10SM 13/12 A3018 RMK AO2 TSNO
KANQ 240435Z AUTO 08008KT 10SM 14/12 A3018 RMK AO2 TSNO
KANQ 240415Z AUTO 09008KT 10SM 14/12 A3019 RMK AO2 TSNO
KANQ 240355Z AUTO 08006G11KT 10SM 14/11 A3019 RMK AO2 TSNO
KANQ 240335Z AUTO 09005KT 10SM 14/11 A3019 RMK AO2 TSNO
KANQ 240315Z AUTO 10007KT 10SM 14/11 A3019 RMK AO2 TSNO
KANQ 240255Z AUTO 10007KT 10SM 14/11 A3019 RMK AO2 TSNO
KANQ 240235Z AUTO 09006KT 10SM 14/11 A3019 RMK AO2 TSNO
KANQ 240215Z AUTO 08007KT 10SM 14/11 A3018 RMK AO2 TSNO
KANQ 240155Z AUTO 08008KT 10SM 15/11 A3017 RMK AO2 TSNO
KANQ 240135Z AUTO 08007KT 10SM 15/11 A3018 RMK AO2 TSNO
KANQ 240115Z AUTO 07009KT 10SM 16/11 A3017 RMK AO2 TSNO
KANQ 240055Z AUTO 08007KT 10SM 15/11 A3017 RMK AO2 TSNO
KANQ 240035Z AUTO 08006KT 10SM 16/10 A3016 RMK AO2 TSNO
KANQ 240015Z AUTO 09006KT 10SM CLR 16/10 A3016 RMK AO2 TSNO
KANQ 232355Z AUTO 09005KT 10SM CLR 17/10 A3015 RMK AO2 TSNO
KANQ 232335Z AUTO 09006KT 10SM CLR 18/11 A3015 RMK AO2 TSNO
KANQ 232315Z AUTO 10005KT 10SM CLR 19/11 A3015 RMK AO2 TSNO
KANQ 232255Z AUTO 10006KT 10SM CLR 20/10 A3014 RMK AO2 TSNO
KANQ 232235Z AUTO 11008KT 10SM CLR 21/10 A3014 RMK AO2 TSNO
KANQ 232215Z AUTO 12009KT 10SM CLR 21/10 A3014 RMK AO2 TSNO
KANQ 232155Z AUTO 13009KT 10SM CLR 21/10 A3014 RMK AO2 TSNO
KANQ 232135Z AUTO 10008KT 10SM CLR 22/10 A3013 RMK AO2 TSNO
KANQ 232115Z AUTO 12009KT 10SM CLR 22/10 A3014 RMK AO2 TSNO
KANQ 232055Z AUTO 11007KT 10SM CLR 22/11 A3013 RMK AO2 TSNO
KANQ 232035Z AUTO 12008KT 10SM CLR 22/11 A3014 RMK AO2 TSNO
KANQ 232015Z AUTO 12010KT 10SM CLR 21/11 A3014 RMK AO2 TSNO
KANQ 231955Z AUTO 14005G13KT 10SM CLR 21/10 A3014 RMK AO2 TSNO
KANQ 231935Z AUTO 13006G11KT 10SM CLR 21/10 A3015 RMK AO2 TSNO
KANQ 231915Z AUTO VRB06G14KT 10SM CLR 20/10 A3016 RMK AO2 TSNO
KANQ 231855Z AUTO 08007KT 070V130 10SM CLR 20/10 A3017 RMK AO2 TSNO
KANQ 231835Z AUTO 08010KT 10SM CLR 20/10 A3017 RMK AO2 TSNO
KANQ 231815Z AUTO 10012KT 10SM CLR 20/11 A3018 RMK AO2 TSNO
KANQ 231755Z AUTO 11009G14KT 10SM CLR 19/11 A3019 RMK AO2 TSNO
KANQ 231735Z AUTO 09006G12KT 10SM CLR 19/10 A3020 RMK AO2 TSNO
KANQ 231715Z AUTO 07006G15KT 10SM CLR 18/11 A3020 RMK AO2 TSNO
KANQ 231655Z AUTO 10008G13KT 10SM FEW028 18/11 A3021 RMK AO2 TSNO
KANQ 231635Z AUTO 08007G14KT 10SM FEW027 18/11 A3022 RMK AO2 TSNO
KANQ 231615Z AUTO 08009KT 10SM SCT026 18/11 A3022 RMK AO2 TSNO
KANQ 231555Z AUTO 11008KT 10SM FEW024 17/11 A3023 RMK AO2 TSNO
KANQ 231535Z AUTO 09006G12KT 10SM FEW023 17/11 A3023 RMK AO2 TSNO
KANQ 231515Z AUTO 09007G12KT 070V130 10SM CLR 16/11 A3023 RMK AO2 TSNO
KANQ 231455Z AUTO 09008KT 10SM CLR 15/10 A3023 RMK AO2 TSNO
KANQ 231435Z AUTO VRB06KT 10SM CLR 15/11 A3023 RMK AO2 TSNO
KANQ 231415Z AUTO 07007KT 10SM CLR 14/10 A3022 RMK AO2 TSNO
KANQ 231355Z AUTO 07005KT 10SM CLR 13/10 A3022 RMK AO2 TSNO
KANQ 231335Z AUTO 09005KT 10SM CLR 13/10 A3021 RMK AO2 TSNO
KANQ 231315Z AUTO 09006KT 10SM CLR 12/10 A3021 RMK AO2 TSNO
KANQ 231255Z AUTO 08004KT 10SM CLR 11/09 A3021 RMK AO2 TSNO
KANQ 231235Z AUTO 00000KT 8SM CLR 09/09 A3021 RMK AO2 TSNO
KANQ 231215Z AUTO 00000KT 5SM BR CLR 08/07 A3020 RMK AO2 TSNO
KANQ 231155Z AUTO 00000KT 6SM BR 07/06 A3020 RMK AO2 TSNO
KANQ 231135Z AUTO 00000KT 5SM BR 07/07 A3020 RMK AO2 TSNO
KANQ 231115Z AUTO 00000KT 7SM 07/06 A3020 RMK AO2 TSNO
KANQ 231055Z AUTO 00000KT 7SM 07/06 A3020 RMK AO2 TSNO
KANQ 231035Z AUTO 00000KT 7SM 07/07 A3020 RMK AO2 TSNO
KANQ 231015Z AUTO 00000KT 7SM 07/07 A3020 RMK AO2 TSNO
KANQ 230955Z AUTO 00000KT 9SM 07/06 A3019 RMK AO2 TSNO
KANQ 230935Z AUTO 00000KT 10SM 07/07 A3019 RMK AO2 TSNO
KANQ 230915Z AUTO 00000KT 9SM 08/07 A3020 RMK AO2 TSNO
KANQ 230855Z AUTO 00000KT 10SM 08/07 A3019 RMK AO2 TSNO
KANQ 230835Z AUTO 00000KT 8SM 08/07 A3019 RMK AO2 TSNO
KANQ 230815Z AUTO 00000KT 10SM 08/07 A3019 RMK AO2 TSNO
KANQ 230755Z AUTO 00000KT 10SM 08/07 A3019 RMK AO2 TSNO
KANQ 230735Z AUTO 00000KT 10SM 08/07 A3019 RMK AO2 TSNO
KANQ 230715Z AUTO 00000KT 10SM 08/07 A3019 RMK AO2 TSNO
KANQ 230655Z AUTO 00000KT 10SM 08/08 A3019 RMK AO2 TSNO
KANQ 230635Z AUTO 00000KT 10SM 09/08 A3020 RMK AO2 TSNO
KANQ 230615Z AUTO 00000KT 10SM 09/08 A3021 RMK AO2 TSNO
KANQ 230555Z AUTO 00000KT 10SM 08/08 A3021 RMK AO2 TSNO
KANQ 230535Z AUTO 00000KT 10SM 09/08 A3021 RMK AO2 TSNO
KANQ 230515Z AUTO 00000KT 10SM 09/08 A3022 RMK AO2 TSNO
KANQ 230455Z AUTO 00000KT 10SM 09/08 A3022 RMK AO2 TSNO
KANQ 230435Z AUTO 00000KT 10SM 09/08 A3022 RMK AO2 TSNO
KANQ 230415Z AUTO 00000KT 10SM 08/08 A3022 RMK AO2 TSNO
KANQ 230355Z AUTO 00000KT 10SM 10/09 A3023 RMK AO2 TSNO
KANQ 230335Z AUTO 00000KT 10SM 10/09 A3023 RMK AO2 TSNO
KANQ 230315Z AUTO 00000KT 10SM 10/09 A3024 RMK AO2 TSNO
KANQ 230255Z AUTO 07003KT 10SM 10/09 A3023 RMK AO2 TSNO
KANQ 230235Z AUTO 00000KT 10SM 10/09 A3023 RMK AO2 TSNO
KANQ 230215Z AUTO 00000KT 10SM 10/09 A3023 RMK AO2 TSNO
KANQ 230155Z AUTO 00000KT 10SM 10/09 A3023 RMK AO2 TSNO
KANQ 230135Z AUTO 00000KT 10SM 10/09 A3023 RMK AO2 TSNO
KANQ 230115Z AUTO 00000KT 10SM 10/09 A3023 RMK AO2 TSNO
KANQ 230055Z AUTO 00000KT 10SM 10/09 A3022 RMK AO2 TSNO
KANQ 230035Z AUTO 00000KT 10SM FEW025 12/09 A3022 RMK AO2 TSNO
KANQ 230015Z AUTO 00000KT 10SM CLR 12/09 A3022 RMK AO2 TSNO
KANQ 222355Z AUTO 06004KT 10SM CLR 13/09 A3022 RMK AO2 TSNO
KANQ 222335Z AUTO 09004KT 10SM CLR 14/09 A3023 RMK AO2 TSNO
KANQ 222315Z AUTO 08005KT 10SM CLR 15/08 A3023 RMK AO2 TSNO
KANQ 222255Z AUTO 08007KT 10SM CLR 16/08 A3023 RMK AO2 TSNO
KANQ 222235Z AUTO 10006KT 10SM CLR 16/08 A3023 RMK AO2 TSNO
KANQ 222215Z AUTO 09006KT 10SM CLR 16/08 A3023 RMK AO2 TSNO
KANQ 222155Z AUTO 09007KT 10SM CLR 16/08 A3023 RMK AO2 TSNO
KANQ 222135Z AUTO VRB06KT 10SM CLR 16/08 A3024 RMK AO2 TSNO
KANQ 222115Z AUTO 09006KT 10SM CLR 16/08 A3023 RMK AO2 TSNO
KANQ 222055Z AUTO 13006KT 10SM FEW036 16/08 A3024 RMK AO2 TSNO
KANQ 222035Z AUTO 13005KT 10SM BKN036 16/08 A3024 RMK AO2 TSNO
KANQ 222015Z AUTO 14007KT 10SM SCT036 16/08 A3024 RMK AO2 TSNO
KANQ 221955Z AUTO 09005KT 10SM FEW035 16/08 A3025 RMK AO2 TSNO
KANQ 221935Z AUTO 08007KT 10SM FEW035 16/08 A3026 RMK AO2 TSNO
KANQ 221915Z AUTO 08006KT 10SM FEW035 16/08 A3026 RMK AO2 TSNO
KANQ 221855Z AUTO 10006G12KT 10SM FEW033 16/08 A3027 RMK AO2 TSNO
KANQ 221835Z AUTO VRB04KT 10SM FEW033 16/08 A3028 RMK AO2 TSNO
KANQ 221815Z AUTO VRB05G12KT 10SM SCT032 16/08 A3029 RMK AO2 TSNO